sensor_id;sensor_type;location;lat;lon;timestamp;pressure;altitude;pressure_sealevel;temperature;humidity
20424;BME280;10371;49.042;8.002;2023-06-22T00:00:23;99815.09;;;21.31;100.00
20424;BME280;10371;49.042;8.002;2023-06-22T00:01:23;99825.53;;;21.32;100.00
20424;BME280;10371;49.042;8.002;2023-06-22T00:02:24;99851.63;;;21.35;100.00
20424;BME280;10371;49.042;8.002;2023-06-22T00:03:25;99881.78;;;21.34;100.00
20424;BME280;10371;49.042;8.002;2023-06-22T00:04:26;99909.53;;;21.38;100.00
20424;BME280;10371;49.042;8.002;2023-06-22T00:05:27;99956.00;;;21.41;100.00
20424;BME280;10371;49.042;8.002;2023-06-22T00:06:27;100003.94;;;21.46;100.00
20424;BME280;10371;49.042;8.002;2023-06-22T00:07:27;100040.00;;;21.47;100.00
20424;BME280;10371;49.042;8.002;2023-06-22T00:08:28;100080.81;;;21.53;100.00
20424;BME280;10371;49.042;8.002;2023-06-22T00:09:28;100105.94;;;21.57;100.00
20424;BME280;10371;49.042;8.002;2023-06-22T00:10:28;100114.75;;;21.64;100.00
20424;BME280;10371;49.042;8.002;2023-06-22T00:11:28;100118.09;;;21.73;100.00
20424;BME280;10371;49.042;8.002;2023-06-22T00:12:29;100102.28;;;21.79;100.00
20424;BME280;10371;49.042;8.002;2023-06-22T00:13:29;100087.63;;;21.83;100.00
20424;BME280;10371;49.042;8.002;2023-06-22T00:14:29;100050.75;;;21.89;100.00
20424;BME280;10371;49.042;8.002;2023-06-22T00:15:29;100021.72;;;22.02;100.00
20424;BME280;10371;49.042;8.002;2023-06-22T00:16:32;99987.03;;;22.03;100.00
20424;BME280;10371;49.042;8.002;2023-06-22T00:17:32;99945.75;;;21.88;100.00
20424;BME280;10371;49.042;8.002;2023-06-22T00:18:33;99896.34;;;21.73;100.00
20424;BME280;10371;49.042;8.002;2023-06-22T00:19:33;99864.78;;;21.50;100.00
20424;BME280;10371;49.042;8.002;2023-06-22T00:20:35;99841.38;;;21.26;100.00
20424;BME280;10371;49.042;8.002;2023-06-22T00:21:39;99832.19;;;21.00;100.00
20424;BME280;10371;49.042;8.002;2023-06-22T00:22:39;99841.69;;;20.88;100.00
20424;BME280;10371;49.042;8.002;2023-06-22T00:23:39;99841.97;;;20.78;100.00
20424;BME280;10371;49.042;8.002;2023-06-22T00:24:41;99838.03;;;20.67;100.00
20424;BME280;10371;49.042;8.002;2023-06-22T00:25:41;99845.88;;;20.61;100.00
20424;BME280;10371;49.042;8.002;2023-06-22T00:26:42;99853.19;;;20.59;100.00
20424;BME280;10371;49.042;8.002;2023-06-22T00:27:42;99853.31;;;20.50;100.00
20424;BME280;10371;49.042;8.002;2023-06-22T00:28:42;99863.63;;;20.45;100.00
20424;BME280;10371;49.042;8.002;2023-06-22T00:29:42;99871.72;;;20.44;100.00
20424;BME280;10371;49.042;8.002;2023-06-22T00:30:43;99877.03;;;20.44;100.00
20424;BME280;10371;49.042;8.002;2023-06-22T00:31:43;99882.13;;;20.45;100.00
20424;BME280;10371;49.042;8.002;2023-06-22T00:32:44;99885.59;;;20.46;100.00
20424;BME280;10371;49.042;8.002;2023-06-22T00:33:45;99891.53;;;20.48;100.00
20424;BME280;10371;49.042;8.002;2023-06-22T00:34:45;99887.69;;;20.50;100.00
20424;BME280;10371;49.042;8.002;2023-06-22T00:35:46;99881.38;;;20.51;100.00
20424;BME280;10371;49.042;8.002;2023-06-22T00:36:46;99884.94;;;20.44;100.00
20424;BME280;10371;49.042;8.002;2023-06-22T00:37:46;99882.25;;;20.37;100.00
20424;BME280;10371;49.042;8.002;2023-06-22T00:38:46;99878.16;;;20.35;100.00
20424;BME280;10371;49.042;8.002;2023-06-22T00:39:47;99875.06;;;20.31;100.00
20424;BME280;10371;49.042;8.002;2023-06-22T00:40:47;99878.25;;;20.26;100.00
20424;BME280;10371;49.042;8.002;2023-06-22T00:41:47;99882.09;;;20.24;100.00
20424;BME280;10371;49.042;8.002;2023-06-22T00:42:48;99871.69;;;20.22;100.00
20424;BME280;10371;49.042;8.002;2023-06-22T00:43:48;99873.72;;;20.20;100.00
20424;BME280;10371;49.042;8.002;2023-06-22T00:44:48;99872.63;;;20.15;100.00
20424;BME280;10371;49.042;8.002;2023-06-22T00:45:49;99866.06;;;20.11;100.00
20424;BME280;10371;49.042;8.002;2023-06-22T00:46:49;99861.78;;;20.09;100.00
20424;BME280;10371;49.042;8.002;2023-06-22T00:47:51;99855.41;;;20.04;100.00
20424;BME280;10371;49.042;8.002;2023-06-22T00:48:52;99856.59;;;20.01;100.00
20424;BME280;10371;49.042;8.002;2023-06-22T00:49:52;99858.22;;;20.02;100.00
20424;BME280;10371;49.042;8.002;2023-06-22T00:50:53;99861.88;;;20.01;100.00
20424;BME280;10371;49.042;8.002;2023-06-22T00:51:57;99860.50;;;20.05;100.00
20424;BME280;10371;49.042;8.002;2023-06-22T00:52:59;99853.03;;;20.09;100.00
20424;BME280;10371;49.042;8.002;2023-06-22T00:54:00;99858.69;;;20.06;100.00
20424;BME280;10371;49.042;8.002;2023-06-22T00:55:02;99857.84;;;20.05;100.00
20424;BME280;10371;49.042;8.002;2023-06-22T00:56:03;99852.84;;;20.11;100.00
20424;BME280;10371;49.042;8.002;2023-06-22T00:57:03;99854.94;;;20.15;100.00
20424;BME280;10371;49.042;8.002;2023-06-22T00:58:08;99849.22;;;20.12;100.00
20424;BME280;10371;49.042;8.002;2023-06-22T00:59:10;99841.00;;;20.06;100.00
20424;BME280;10371;49.042;8.002;2023-06-22T01:00:12;99846.28;;;20.06;100.00
20424;BME280;10371;49.042;8.002;2023-06-22T01:01:17;99849.03;;;19.98;100.00
20424;BME280;10371;49.042;8.002;2023-06-22T01:02:17;99844.75;;;19.97;100.00
20424;BME280;10371;49.042;8.002;2023-06-22T01:03:17;99853.25;;;19.93;100.00
20424;BME280;10371;49.042;8.002;2023-06-22T01:04:18;99836.38;;;19.94;100.00
20424;BME280;10371;49.042;8.002;2023-06-22T01:05:20;99840.66;;;19.95;100.00
20424;BME280;10371;49.042;8.002;2023-06-22T01:06:26;99839.22;;;19.92;100.00
20424;BME280;10371;49.042;8.002;2023-06-22T01:09:06;99834.53;;;19.94;100.00
20424;BME280;10371;49.042;8.002;2023-06-22T01:10:15;99842.09;;;19.97;100.00
20424;BME280;10371;49.042;8.002;2023-06-22T01:11:23;99853.03;;;19.94;100.00
20424;BME280;10371;49.042;8.002;2023-06-22T01:12:26;99847.94;;;19.93;100.00
20424;BME280;10371;49.042;8.002;2023-06-22T01:14:55;99852.97;;;19.88;100.00
20424;BME280;10371;49.042;8.002;2023-06-22T01:16:07;99847.22;;;19.84;100.00
20424;BME280;10371;49.042;8.002;2023-06-22T01:17:11;99841.09;;;19.83;100.00
20424;BME280;10371;49.042;8.002;2023-06-22T01:18:14;99835.56;;;19.78;100.00
20424;BME280;10371;49.042;8.002;2023-06-22T01:20:36;99835.31;;;19.73;100.00
20424;BME280;10371;49.042;8.002;2023-06-22T01:21:38;99830.84;;;19.74;100.00
20424;BME280;10371;49.042;8.002;2023-06-22T01:24:16;99838.09;;;19.72;100.00
20424;BME280;10371;49.042;8.002;2023-06-22T01:25:21;99835.19;;;19.67;100.00
20424;BME280;10371;49.042;8.002;2023-06-22T01:26:39;99836.66;;;19.69;100.00
20424;BME280;10371;49.042;8.002;2023-06-22T01:29:18;99838.84;;;19.66;100.00
20424;BME280;10371;49.042;8.002;2023-06-22T01:30:20;99840.81;;;19.63;100.00
20424;BME280;10371;49.042;8.002;2023-06-22T01:31:24;99839.84;;;19.64;100.00
20424;BME280;10371;49.042;8.002;2023-06-22T01:32:25;99831.91;;;19.64;100.00
20424;BME280;10371;49.042;8.002;2023-06-22T01:33:25;99834.91;;;19.61;100.00
20424;BME280;10371;49.042;8.002;2023-06-22T01:34:27;99831.19;;;19.56;100.00
20424;BME280;10371;49.042;8.002;2023-06-22T01:35:28;99837.91;;;19.58;100.00
20424;BME280;10371;49.042;8.002;2023-06-22T01:36:30;99834.44;;;19.58;100.00
20424;BME280;10371;49.042;8.002;2023-06-22T01:37:33;99841.00;;;19.62;100.00
20424;BME280;10371;49.042;8.002;2023-06-22T01:38:34;99840.81;;;19.63;100.00
20424;BME280;10371;49.042;8.002;2023-06-22T01:39:36;99835.72;;;19.62;100.00
20424;BME280;10371;49.042;8.002;2023-06-22T01:40:37;99833.91;;;19.62;100.00
20424;BME280;10371;49.042;8.002;2023-06-22T01:41:37;99837.34;;;19.63;100.00
20424;BME280;10371;49.042;8.002;2023-06-22T01:42:38;99842.47;;;19.64;100.00
20424;BME280;10371;49.042;8.002;2023-06-22T01:43:39;99842.00;;;19.61;100.00
20424;BME280;10371;49.042;8.002;2023-06-22T01:44:40;99846.47;;;19.60;100.00
20424;BME280;10371;49.042;8.002;2023-06-22T01:45:41;99846.81;;;19.57;100.00
20424;BME280;10371;49.042;8.002;2023-06-22T01:46:42;99852.75;;;19.59;100.00
20424;BME280;10371;49.042;8.002;2023-06-22T01:47:42;99855.41;;;19.59;100.00
20424;BME280;10371;49.042;8.002;2023-06-22T01:48:43;99852.09;;;19.57;100.00
20424;BME280;10371;49.042;8.002;2023-06-22T01:49:43;99849.47;;;19.57;100.00
20424;BME280;10371;49.042;8.002;2023-06-22T01:50:44;99851.28;;;19.57;100.00
20424;BME280;10371;49.042;8.002;2023-06-22T01:51:45;99845.00;;;19.58;100.00
20424;BME280;10371;49.042;8.002;2023-06-22T01:52:45;99845.66;;;19.60;100.00
20424;BME280;10371;49.042;8.002;2023-06-22T01:53:45;99843.66;;;19.62;100.00
20424;BME280;10371;49.042;8.002;2023-06-22T01:54:47;99839.84;;;19.64;100.00
20424;BME280;10371;49.042;8.002;2023-06-22T01:55:48;99844.94;;;19.66;100.00
20424;BME280;10371;49.042;8.002;2023-06-22T01:56:49;99838.47;;;19.69;100.00
20424;BME280;10371;49.042;8.002;2023-06-22T01:57:49;99839.78;;;19.73;100.00
20424;BME280;10371;49.042;8.002;2023-06-22T01:58:57;99840.84;;;19.78;100.00
20424;BME280;10371;49.042;8.002;2023-06-22T02:00:03;99841.09;;;19.83;100.00
20424;BME280;10371;49.042;8.002;2023-06-22T02:01:12;99833.66;;;19.87;100.00
20424;BME280;10371;49.042;8.002;2023-06-22T02:02:15;99839.22;;;19.92;100.00
20424;BME280;10371;49.042;8.002;2023-06-22T02:03:23;99840.03;;;19.93;100.00
20424;BME280;10371;49.042;8.002;2023-06-22T02:04:44;99831.91;;;19.94;100.00
20424;BME280;10371;49.042;8.002;2023-06-22T02:05:50;99841.47;;;19.95;100.00
20424;BME280;10371;49.042;8.002;2023-06-22T02:06:54;99835.38;;;19.95;100.00
20424;BME280;10371;49.042;8.002;2023-06-22T02:08:03;99834.00;;;19.99;100.00
20424;BME280;10371;49.042;8.002;2023-06-22T02:09:12;99831.53;;;19.97;100.00
20424;BME280;10371;49.042;8.002;2023-06-22T02:10:16;99823.97;;;19.94;100.00
20424;BME280;10371;49.042;8.002;2023-06-22T02:11:20;99822.97;;;19.95;100.00
20424;BME280;10371;49.042;8.002;2023-06-22T02:12:23;99823.16;;;19.94;100.00
20424;BME280;10371;49.042;8.002;2023-06-22T02:13:24;99820.50;;;19.94;100.00
20424;BME280;10371;49.042;8.002;2023-06-22T02:14:25;99819.69;;;19.93;100.00
20424;BME280;10371;49.042;8.002;2023-06-22T02:15:26;99820.94;;;19.97;100.00
20424;BME280;10371;49.042;8.002;2023-06-22T02:16:27;99817.69;;;19.95;100.00
20424;BME280;10371;49.042;8.002;2023-06-22T02:17:31;99814.41;;;19.93;100.00
20424;BME280;10371;49.042;8.002;2023-06-22T02:18:33;99823.16;;;19.94;100.00
20424;BME280;10371;49.042;8.002;2023-06-22T02:19:36;99819.88;;;19.92;100.00
20424;BME280;10371;49.042;8.002;2023-06-22T02:20:38;99820.72;;;19.92;100.00
20424;BME280;10371;49.042;8.002;2023-06-22T02:21:38;99820.06;;;19.90;100.00
20424;BME280;10371;49.042;8.002;2023-06-22T02:22:38;99813.97;;;19.90;100.00
20424;BME280;10371;49.042;8.002;2023-06-22T02:23:39;99811.50;;;19.88;100.00
20424;BME280;10371;49.042;8.002;2023-06-22T02:24:39;99805.41;;;19.88;100.00
20424;BME280;10371;49.042;8.002;2023-06-22T02:25:39;99806.22;;;19.88;100.00
20424;BME280;10371;49.042;8.002;2023-06-22T02:26:39;99815.97;;;19.88;100.00
20424;BME280;10371;49.042;8.002;2023-06-22T02:27:42;99804.97;;;19.84;100.00
20424;BME280;10371;49.042;8.002;2023-06-22T02:28:42;99802.50;;;19.82;100.00
20424;BME280;10371;49.042;8.002;2023-06-22T02:29:43;99800.66;;;19.83;100.00
20424;BME280;10371;49.042;8.002;2023-06-22T02:30:43;99802.69;;;19.81;100.00
20424;BME280;10371;49.042;8.002;2023-06-22T02:31:44;99805.34;;;19.81;100.00
20424;BME280;10371;49.042;8.002;2023-06-22T02:32:44;99812.16;;;19.75;100.00
20424;BME280;10371;49.042;8.002;2023-06-22T02:33:44;99805.88;;;19.76;100.00
20424;BME280;10371;49.042;8.002;2023-06-22T02:34:45;99810.72;;;19.73;100.00
20424;BME280;10371;49.042;8.002;2023-06-22T02:35:47;99809.41;;;19.69;100.00
20424;BME280;10371;49.042;8.002;2023-06-22T02:36:49;99804.13;;;19.69;100.00
20424;BME280;10371;49.042;8.002;2023-06-22T02:37:53;99803.16;;;19.70;100.00
20424;BME280;10371;49.042;8.002;2023-06-22T02:38:54;99802.50;;;19.68;100.00
20424;BME280;10371;49.042;8.002;2023-06-22T02:39:56;99798.69;;;19.70;100.00
20424;BME280;10371;49.042;8.002;2023-06-22T02:40:56;99789.09;;;19.69;100.00
20424;BME280;10371;49.042;8.002;2023-06-22T02:41:57;99788.94;;;19.71;100.00
20424;BME280;10371;49.042;8.002;2023-06-22T02:42:58;99788.13;;;19.70;100.00
20424;BME280;10371;49.042;8.002;2023-06-22T02:44:01;99792.59;;;19.70;100.00
20424;BME280;10371;49.042;8.002;2023-06-22T02:45:02;99788.94;;;19.71;100.00
20424;BME280;10371;49.042;8.002;2023-06-22T02:46:02;99790.56;;;19.72;100.00
20424;BME280;10371;49.042;8.002;2023-06-22T02:47:03;99793.84;;;19.74;100.00
20424;BME280;10371;49.042;8.002;2023-06-22T02:48:04;99800.16;;;19.73;100.00
20424;BME280;10371;49.042;8.002;2023-06-22T02:49:04;99796.66;;;19.72;100.00
20424;BME280;10371;49.042;8.002;2023-06-22T02:50:05;99807.44;;;19.71;100.00
20424;BME280;10371;49.042;8.002;2023-06-22T02:51:05;99805.97;;;19.68;100.00
20424;BME280;10371;49.042;8.002;2023-06-22T02:52:06;99809.13;;;19.63;100.00
20424;BME280;10371;49.042;8.002;2023-06-22T02:53:07;99809.69;;;19.59;100.00
20424;BME280;10371;49.042;8.002;2023-06-22T02:54:07;99798.84;;;19.54;100.00
20424;BME280;10371;49.042;8.002;2023-06-22T02:55:07;99799.22;;;19.51;100.00
20424;BME280;10371;49.042;8.002;2023-06-22T02:56:08;99803.69;;;19.50;100.00
20424;BME280;10371;49.042;8.002;2023-06-22T02:57:08;99801.22;;;19.49;100.00
20424;BME280;10371;49.042;8.002;2023-06-22T02:58:13;99795.09;;;19.48;100.00
20424;BME280;10371;49.042;8.002;2023-06-22T02:59:13;99791.81;;;19.46;100.00
20424;BME280;10371;49.042;8.002;2023-06-22T03:00:14;99790.19;;;19.45;100.00
20424;BME280;10371;49.042;8.002;2023-06-22T03:01:18;99788.53;;;19.44;100.00
20424;BME280;10371;49.042;8.002;2023-06-22T03:02:23;99786.09;;;19.42;100.00
20424;BME280;10371;49.042;8.002;2023-06-22T03:03:23;99786.09;;;19.42;100.00
20424;BME280;10371;49.042;8.002;2023-06-22T03:04:26;99780.81;;;19.42;100.00
20424;BME280;10371;49.042;8.002;2023-06-22T03:05:26;99786.09;;;19.42;100.00
20424;BME280;10371;49.042;8.002;2023-06-22T03:06:27;99787.94;;;19.42;100.00
20424;BME280;10371;49.042;8.002;2023-06-22T03:07:28;99784.44;;;19.41;100.00
20424;BME280;10371;49.042;8.002;2023-06-22T03:08:30;99779.53;;;19.38;100.00
20424;BME280;10371;49.042;8.002;2023-06-22T03:09:30;99785.66;;;19.39;100.00
20424;BME280;10371;49.042;8.002;2023-06-22T03:10:30;99782.00;;;19.40;100.00
20424;BME280;10371;49.042;8.002;2023-06-22T03:11:32;99787.28;;;19.40;100.00
20424;BME280;10371;49.042;8.002;2023-06-22T03:12:32;99786.63;;;19.38;100.00
20424;BME280;10371;49.042;8.002;2023-06-22T03:13:33;99794.56;;;19.38;100.00
20424;BME280;10371;49.042;8.002;2023-06-22T03:14:33;99800.84;;;19.37;100.00
20424;BME280;10371;49.042;8.002;2023-06-22T03:15:33;99793.91;;;19.36;100.00
20424;BME280;10371;49.042;8.002;2023-06-22T03:16:34;99796.38;;;19.37;100.00
20424;BME280;10371;49.042;8.002;2023-06-22T03:17:35;99790.94;;;19.39;100.00
20424;BME280;10371;49.042;8.002;2023-06-22T03:18:35;99789.28;;;19.38;100.00
20424;BME280;10371;49.042;8.002;2023-06-22T03:19:36;99789.28;;;19.38;100.00
20424;BME280;10371;49.042;8.002;2023-06-22T03:20:36;99785.28;;;19.42;100.00
20424;BME280;10371;49.042;8.002;2023-06-22T03:21:37;99797.47;;;19.43;100.00
20424;BME280;10371;49.042;8.002;2023-06-22T03:22:41;99782.81;;;19.40;100.00
20424;BME280;10371;49.042;8.002;2023-06-22T03:23:42;99792.19;;;19.43;100.00
20424;BME280;10371;49.042;8.002;2023-06-22T03:24:43;99788.53;;;19.44;100.00
20424;BME280;10371;49.042;8.002;2023-06-22T03:25:43;99793.13;;;19.50;100.00
20424;BME280;10371;49.042;8.002;2023-06-22T03:26:46;99788.66;;;19.51;100.00
20424;BME280;10371;49.042;8.002;2023-06-22T03:27:47;99789.63;;;19.50;100.00
20424;BME280;10371;49.042;8.002;2023-06-22T03:28:48;99787.19;;;19.48;100.00
20424;BME280;10371;49.042;8.002;2023-06-22T03:29:48;99788.16;;;19.47;100.00
20424;BME280;10371;49.042;8.002;2023-06-22T03:30:48;99782.06;;;19.47;100.00
20424;BME280;10371;49.042;8.002;2023-06-22T03:31:49;99782.56;;;19.50;100.00
20424;BME280;10371;49.042;8.002;2023-06-22T03:32:49;99775.25;;;19.52;100.00
20424;BME280;10371;49.042;8.002;2023-06-22T03:33:50;99780.25;;;19.47;100.00
20424;BME280;10371;49.042;8.002;2023-06-22T03:34:50;99783.53;;;19.49;100.00
20424;BME280;10371;49.042;8.002;2023-06-22T03:35:50;99783.66;;;19.56;100.00
20424;BME280;10371;49.042;8.002;2023-06-22T03:36:50;99788.00;;;19.49;100.00
20424;BME280;10371;49.042;8.002;2023-06-22T03:37:51;99791.47;;;19.49;100.00
20424;BME280;10371;49.042;8.002;2023-06-22T03:38:51;99789.47;;;19.51;100.00
20424;BME280;10371;49.042;8.002;2023-06-22T03:39:52;99789.63;;;19.50;100.00
20424;BME280;10371;49.042;8.002;2023-06-22T03:40:52;99787.19;;;19.48;100.00
20424;BME280;10371;49.042;8.002;2023-06-22T03:41:53;99784.34;;;19.50;100.00
20424;BME280;10371;49.042;8.002;2023-06-22T03:42:53;99788.81;;;19.49;100.00
20424;BME280;10371;49.042;8.002;2023-06-22T03:43:53;99792.28;;;19.50;100.00
20424;BME280;10371;49.042;8.002;2023-06-22T03:44:53;99784.72;;;19.47;100.00
20424;BME280;10371;49.042;8.002;2023-06-22T03:45:54;99785.81;;;19.52;100.00
20424;BME280;10371;49.042;8.002;2023-06-22T03:46:54;99781.91;;;19.48;100.00
20424;BME280;10371;49.042;8.002;2023-06-22T03:47:54;99785.81;;;19.52;100.00
20424;BME280;10371;49.042;8.002;2023-06-22T03:48:54;99783.38;;;19.51;100.00
20424;BME280;10371;49.042;8.002;2023-06-22T03:49:55;99777.06;;;19.52;100.00
20424;BME280;10371;49.042;8.002;2023-06-22T03:50:55;99781.81;;;19.56;100.00
20424;BME280;10371;49.042;8.002;2023-06-22T03:51:55;99773.91;;;19.56;100.00
20424;BME280;10371;49.042;8.002;2023-06-22T03:52:55;99774.25;;;19.53;100.00
20424;BME280;10371;49.042;8.002;2023-06-22T03:53:56;99774.72;;;19.57;100.00
20424;BME280;10371;49.042;8.002;2023-06-22T03:54:56;99775.97;;;19.61;100.00
20424;BME280;10371;49.042;8.002;2023-06-22T03:55:56;99778.28;;;19.64;100.00
20424;BME280;10371;49.042;8.002;2023-06-22T03:56:57;99778.28;;;19.64;100.00
20424;BME280;10371;49.042;8.002;2023-06-22T03:57:58;99774.16;;;19.61;100.00
20424;BME280;10371;49.042;8.002;2023-06-22T03:58:58;99783.28;;;19.59;100.00
20424;BME280;10371;49.042;8.002;2023-06-22T03:59:59;99778.81;;;19.59;100.00
20424;BME280;10371;49.042;8.002;2023-06-22T04:00:59;99787.72;;;19.58;100.00
20424;BME280;10371;49.042;8.002;2023-06-22T04:02:00;99799.72;;;19.61;100.00
20424;BME280;10371;49.042;8.002;2023-06-22T04:03:00;99780.81;;;19.57;100.00
20424;BME280;10371;49.042;8.002;2023-06-22T04:04:00;99786.34;;;19.62;100.00
20424;BME280;10371;49.042;8.002;2023-06-22T04:05:01;99785.91;;;19.59;100.00
20424;BME280;10371;49.042;8.002;2023-06-22T04:06:01;99796.47;;;19.59;100.00
20424;BME280;10371;49.042;8.002;2023-06-22T04:07:01;99786.72;;;19.59;100.00
20424;BME280;10371;49.042;8.002;2023-06-22T04:08:01;99783.06;;;19.60;100.00
20424;BME280;10371;49.042;8.002;2023-06-22T04:09:02;99778.28;;;19.64;100.00
20424;BME280;10371;49.042;8.002;2023-06-22T04:10:04;99769.50;;;19.63;100.00
20424;BME280;10371;49.042;8.002;2023-06-22T04:11:04;99768.34;;;19.66;100.00
20424;BME280;10371;49.042;8.002;2023-06-22T04:12:05;99775.91;;;19.69;100.00
20424;BME280;10371;49.042;8.002;2023-06-22T04:13:07;99786.66;;;19.68;100.00
20424;BME280;10371;49.042;8.002;2023-06-22T04:14:07;99790.28;;;19.67;100.00
20424;BME280;10371;49.042;8.002;2023-06-22T04:15:07;99781.56;;;19.66;100.00
20424;BME280;10371;49.042;8.002;2023-06-22T04:16:08;99778.75;;;19.68;100.00
20424;BME280;10371;49.042;8.002;2023-06-22T04:17:08;99769.81;;;19.69;100.00
20424;BME280;10371;49.042;8.002;2023-06-22T04:18:08;99772.28;;;19.70;100.00
20424;BME280;10371;49.042;8.002;2023-06-22T04:19:09;99767.97;;;19.69;100.00
20424;BME280;10371;49.042;8.002;2023-06-22T04:20:16;99776.38;;;19.73;100.00
20424;BME280;10371;49.042;8.002;2023-06-22T04:21:16;99767.81;;;19.71;100.00
20424;BME280;10371;49.042;8.002;2023-06-22T04:22:16;99775.72;;;19.71;100.00
20424;BME280;10371;49.042;8.002;2023-06-22T04:23:16;99770.44;;;19.71;100.00
20424;BME280;10371;49.042;8.002;2023-06-22T04:24:17;99774.09;;;19.70;100.00
20424;BME280;10371;49.042;8.002;2023-06-22T04:25:17;99761.50;;;19.72;100.00
20424;BME280;10371;49.042;8.002;2023-06-22T04:26:17;99766.63;;;19.73;100.00
20424;BME280;10371;49.042;8.002;2023-06-22T04:27:20;99769.69;;;19.77;100.00
20424;BME280;10371;49.042;8.002;2023-06-22T04:28:23;99767.97;;;19.84;100.00
20424;BME280;10371;49.042;8.002;2023-06-22T04:29:23;99770.63;;;19.84;100.00
20424;BME280;10371;49.042;8.002;2023-06-22T04:30:28;99770.25;;;19.87;100.00
20424;BME280;10371;49.042;8.002;2023-06-22T04:31:32;99775.16;;;19.90;100.00
20424;BME280;10371;49.042;8.002;2023-06-22T04:32:36;99773.38;;;19.97;100.00
20424;BME280;10371;49.042;8.002;2023-06-22T04:33:36;99774.03;;;19.99;100.00
20424;BME280;10371;49.042;8.002;2023-06-22T04:34:41;99766.09;;;19.99;100.00
20424;BME280;10371;49.042;8.002;2023-06-22T04:35:44;99760.91;;;20.06;100.00
20424;BME280;10371;49.042;8.002;2023-06-22T04:36:44;99767.81;;;20.07;100.00
20424;BME280;10371;49.042;8.002;2023-06-22T04:37:45;99757.03;;;20.08;100.00
20424;BME280;10371;49.042;8.002;2023-06-22T04:38:46;99761.59;;;20.15;100.00
20424;BME280;10371;49.042;8.002;2023-06-22T04:39:46;99765.69;;;20.17;100.00
20424;BME280;10371;49.042;8.002;2023-06-22T04:40:46;99765.31;;;20.20;100.00
20424;BME280;10371;49.042;8.002;2023-06-22T04:41:46;99764.13;;;20.23;100.00
20424;BME280;10371;49.042;8.002;2023-06-22T04:42:47;99761.91;;;20.26;100.00
20424;BME280;10371;49.042;8.002;2023-06-22T04:43:52;99764.00;;;20.31;100.00
20424;BME280;10371;49.042;8.002;2023-06-22T04:44:54;99761.97;;;20.33;100.00
20424;BME280;10371;49.042;8.002;2023-06-22T04:45:54;99753.28;;;20.39;100.00
20424;BME280;10371;49.042;8.002;2023-06-22T04:46:57;99759.06;;;20.49;100.00
20424;BME280;10371;49.042;8.002;2023-06-22T04:48:03;99753.31;;;20.61;100.00
20424;BME280;10371;49.042;8.002;2023-06-22T04:49:07;99755.44;;;20.72;100.00
20424;BME280;10371;49.042;8.002;2023-06-22T04:50:11;99755.44;;;20.72;100.00
20424;BME280;10371;49.042;8.002;2023-06-22T04:51:11;99745.84;;;20.92;100.00
20424;BME280;10371;49.042;8.002;2023-06-22T04:52:13;99750.34;;;20.98;100.00
20424;BME280;10371;49.042;8.002;2023-06-22T04:53:13;99747.22;;;20.88;100.00
20424;BME280;10371;49.042;8.002;2023-06-22T04:54:14;99740.53;;;20.92;100.00
20424;BME280;10371;49.042;8.002;2023-06-22T04:55:14;99742.03;;;21.02;100.00
20424;BME280;10371;49.042;8.002;2023-06-22T04:56:18;99741.00;;;21.03;100.00
20424;BME280;10371;49.042;8.002;2023-06-22T04:57:18;99739.75;;;20.98;100.00
20424;BME280;10371;49.042;8.002;2023-06-22T04:58:19;99737.13;;;20.98;100.00
20424;BME280;10371;49.042;8.002;2023-06-22T04:59:22;99741.22;;;21.01;100.00
20424;BME280;10371;49.042;8.002;2023-06-22T05:00:22;99737.34;;;21.04;100.00
20424;BME280;10371;49.042;8.002;2023-06-22T05:01:23;99744.09;;;21.06;100.00
20424;BME280;10371;49.042;8.002;2023-06-22T05:02:24;99741.56;;;21.26;100.00
20424;BME280;10371;49.042;8.002;2023-06-22T05:03:27;99741.56;;;21.26;100.00
20424;BME280;10371;49.042;8.002;2023-06-22T05:04:29;99747.00;;;21.18;100.00
20424;BME280;10371;49.042;8.002;2023-06-22T05:05:32;99746.56;;;21.14;100.00
20424;BME280;10371;49.042;8.002;2023-06-22T05:06:33;99741.81;;;21.31;100.00
20424;BME280;10371;49.042;8.002;2023-06-22T05:07:34;99728.25;;;21.48;100.00
20424;BME280;10371;49.042;8.002;2023-06-22T05:08:34;99740.38;;;21.35;100.00
20424;BME280;10371;49.042;8.002;2023-06-22T05:09:35;99738.69;;;21.28;100.00
20424;BME280;10371;49.042;8.002;2023-06-22T05:10:35;99738.06;;;21.54;100.00
20424;BME280;10371;49.042;8.002;2023-06-22T05:11:35;99736.41;;;21.53;100.00
20424;BME280;10371;49.042;8.002;2023-06-22T05:12:35;99732.78;;;21.54;100.00
20424;BME280;10371;49.042;8.002;2023-06-22T05:13:36;99737.47;;;21.58;100.00
20424;BME280;10371;49.042;8.002;2023-06-22T05:14:36;99731.22;;;21.79;100.00
20424;BME280;10371;49.042;8.002;2023-06-22T05:15:36;99726.16;;;21.98;100.00
20424;BME280;10371;49.042;8.002;2023-06-22T05:16:41;99732.22;;;21.72;100.00
20424;BME280;10371;49.042;8.002;2023-06-22T05:17:42;99734.44;;;21.68;100.00
20424;BME280;10371;49.042;8.002;2023-06-22T05:18:45;99741.03;;;21.79;100.00
20424;BME280;10371;49.042;8.002;2023-06-22T05:19:46;99734.28;;;21.76;100.00
20424;BME280;10371;49.042;8.002;2023-06-22T05:20:48;99732.50;;;21.90;100.00
20424;BME280;10371;49.042;8.002;2023-06-22T05:21:48;99732.03;;;21.73;100.00
20424;BME280;10371;49.042;8.002;2023-06-22T05:22:48;99733.44;;;21.69;100.00
20424;BME280;10371;49.042;8.002;2023-06-22T05:23:49;99728.75;;;21.71;100.00
20424;BME280;10371;49.042;8.002;2023-06-22T05:24:49;99734.47;;;21.75;100.00
20424;BME280;10371;49.042;8.002;2023-06-22T05:25:50;99735.06;;;21.70;100.00
20424;BME280;10371;49.042;8.002;2023-06-22T05:26:50;99732.81;;;21.67;100.00
20424;BME280;10371;49.042;8.002;2023-06-22T05:27:51;99722.47;;;21.85;100.00
20424;BME280;10371;49.042;8.002;2023-06-22T05:28:52;99721.44;;;21.86;100.00